ベルリン/テーゲル の空港の天気 - METARとTAF

ベルリン・テーゲル国際空港 ( EDDT / TXL ) - ドイツ ベルリン
飛行場実況気象(Metar)
観測時間02/20 15:50 CET (02/20 14:50 UTC)
風向・風速西南西 8m/s
視程5000m
天気現象弱い雨 弱い霧雨 もや
少しの雲 雲底高度 210m
全天の8割程度の雲 雲底高度 400m
全天を覆う雲 雲底高度 910m
気温8℃
湿度87%
気圧1008hPa
METAREDDT 201450Z 24016KT 5000 -RADZ BR FEW007 BKN013 OVC030 08/06 Q1008 BECMG 24020G30KT BKN009
過去の天気等 Google飛行場航空写真 Wunderground天気予報

過去48時間のMETAR

飛行場予報(TAF)
発表時間: 2/20 12:00 CET (2/20 11:00 UTC)
予報対象時間: 20日13時 CET ~ 21日13時 CET
風向・風速西南西 8m/s 瞬間風速 14m/s
視程7,000m
全天の4割程度の雲 雲底高度 370m
全天の8割程度の雲 雲底高度 910m
20日15時 CET ~ 21日1時 CET に一時的に
視程3,500m
天気現象弱い霧雨雨
全天の8割程度の雲 雲底高度 210m
21日1時 CET ~ 21日4時 CET に徐々に
風向・風速西 6m/s
全天の8割程度の雲 雲底高度 370m
21日9時 CET ~ 21日11時 CET に徐々に
風向・風速西 8m/s 瞬間風速 13m/s
全天の8割程度の雲 雲底高度 610m
TAF EDDT 201100Z 2012/2112 24015G28KT 7000 SCT012 BKN030
TEMPO 2014/2024 3500 -DZRA BKN007
BECMG 2100/2103 27012KT BKN012
BECMG 2108/2110 28015G25KT BKN020